Time;durP1;ratioP1;P1;durP2;ratioP2;P2;SDS_P1;SDS_P2;PMS_P1;PMS_P2;Temp;Humidity;BMP_temperature;BMP_pressure;BME280_temperature;BME280_humidity;BME280_pressure;Samples;Min_cycle;Max_cycle;Signal;HPM_P1;HPM_P2
2023/08/06 00:00:10;;;;;;;7.77;5.77;;;15.10;99.90;;;;;;5108896;28;20917;-70
2023/08/06 00:02:36;;;;;;;8.15;6.00;;;15.00;99.90;;;;;;5109042;28;20443;-70
2023/08/06 00:05:02;;;;;;;7.73;6.23;;;15.00;99.90;;;;;;5108567;28;20408;-70
2023/08/06 00:07:28;;;;;;;7.82;6.40;;;14.90;99.90;;;;;;5109616;28;20396;-70
2023/08/06 00:09:53;;;;;;;9.73;7.05;;;14.90;99.90;;;;;;5109586;28;20419;-70
2023/08/06 00:12:19;;;;;;;10.30;7.20;;;14.90;99.90;;;;;;5108540;28;20527;-70
2023/08/06 00:14:45;;;;;;;9.67;7.80;;;14.80;99.90;;;;;;5108669;28;20396;-71
2023/08/06 00:17:10;;;;;;;9.15;7.50;;;14.80;99.90;;;;;;5107670;28;20408;-71
2023/08/06 00:19:36;;;;;;;10.10;7.50;;;14.80;99.90;;;;;;5109529;28;20436;-71
2023/08/06 00:22:01;;;;;;;9.35;7.40;;;14.80;99.90;;;;;;5102019;28;20402;-71
2023/08/06 00:24:27;;;;;;;9.90;8.07;;;14.80;99.90;;;;;;5102596;28;20517;-71
2023/08/06 00:26:53;;;;;;;10.35;7.95;;;14.80;99.90;;;;;;5104636;28;20494;-71
2023/08/06 00:29:19;;;;;;;10.37;7.67;;;14.80;99.90;;;;;;5109053;28;20404;-71
2023/08/06 00:31:45;;;;;;;10.85;8.23;;;14.80;99.90;;;;;;5105940;28;20408;-71
2023/08/06 00:34:10;;;;;;;9.80;7.22;;;14.80;99.90;;;;;;5108958;28;20471;-71
2023/08/06 00:36:36;;;;;;;10.53;7.20;;;14.80;99.90;;;;;;5101605;28;20822;-71
2023/08/06 00:39:02;;;;;;;9.80;7.27;;;14.80;99.90;;;;;;5088499;28;20441;-70
2023/08/06 00:41:28;;;;;;;9.63;7.20;;;14.70;99.90;;;;;;5107171;28;21093;-70
2023/08/06 00:43:53;;;;;;;10.40;7.20;;;14.70;99.90;;;;;;5107574;28;20405;-70
2023/08/06 00:46:20;;;;;;;8.77;7.22;;;14.70;99.90;;;;;;5106404;28;20400;-71
2023/08/06 00:48:46;;;;;;;9.55;6.95;;;14.80;99.90;;;;;;5108387;27;20483;-70
2023/08/06 00:51:12;;;;;;;9.98;7.30;;;14.70;99.90;;;;;;5105342;28;20408;-70
2023/08/06 00:53:39;;;;;;;8.07;7.03;;;14.70;99.90;;;;;;5107777;28;20754;-70
2023/08/06 00:56:05;;;;;;;11.18;7.45;;;14.80;99.90;;;;;;5093227;28;20507;-70
2023/08/06 00:58:31;;;;;;;8.85;7.18;;;14.80;99.90;;;;;;5095836;28;20816;-70
2023/08/06 01:00:57;;;;;;;11.90;7.53;;;14.80;99.90;;;;;;5089367;28;20509;-71
2023/08/06 01:03:23;;;;;;;9.05;7.20;;;14.80;99.90;;;;;;5102069;28;20399;-70
2023/08/06 01:05:49;;;;;;;9.37;7.50;;;14.80;99.90;;;;;;5104489;28;20752;-71
2023/08/06 01:08:29;;;;;;;10.20;7.60;;;14.80;99.90;;;;;;5106902;28;20507;-71
2023/08/06 01:10:56;;;;;;;10.57;8.00;;;14.80;99.90;;;;;;5085495;28;20415;-71
2023/08/06 01:13:34;;;;;;;11.07;7.45;;;14.80;99.90;;;;;;5105744;27;20408;-71
2023/08/06 01:16:01;;;;;;;9.70;7.63;;;14.80;99.90;;;;;;5108120;28;20743;-71
2023/08/06 01:18:27;;;;;;;10.13;7.70;;;14.80;99.90;;;;;;5105850;28;20400;-71
2023/08/06 01:20:52;;;;;;;11.77;8.00;;;14.80;99.90;;;;;;5096904;28;21318;-71
2023/08/06 01:23:19;;;;;;;9.90;7.32;;;14.80;99.90;;;;;;5100334;28;20497;-71
2023/08/06 01:26:09;;;;;;;10.25;8.02;;;14.80;99.90;;;;;;5107150;28;20420;-70
2023/08/06 01:29:07;;;;;;;10.38;8.15;;;14.80;99.90;;;;;;5091228;28;20751;-71
2023/08/06 01:31:38;;;;;;;9.48;8.45;;;14.80;99.90;;;;;;5097879;28;20443;-71
2023/08/06 01:34:07;;;;;;;9.40;8.43;;;14.80;99.90;;;;;;5077048;28;20453;-71
2023/08/06 01:36:33;;;;;;;10.70;8.52;;;14.80;99.90;;;;;;5079891;28;20394;-70
2023/08/06 01:38:59;;;;;;;10.83;9.10;;;14.80;99.90;;;;;;5097441;28;20399;-70
2023/08/06 01:41:25;;;;;;;12.75;8.95;;;14.80;99.90;;;;;;5098823;28;21469;-70
2023/08/06 01:43:50;;;;;;;10.88;8.38;;;14.80;99.90;;;;;;5101528;28;20399;-71
2023/08/06 01:46:16;;;;;;;12.27;8.73;;;14.80;99.90;;;;;;5107308;28;20396;-71
2023/08/06 01:48:42;;;;;;;10.43;9.10;;;14.80;99.90;;;;;;5105609;28;20912;-71
2023/08/06 01:51:07;;;;;;;12.13;9.43;;;14.80;99.90;;;;;;5089457;28;20401;-70
2023/08/06 01:53:33;;;;;;;11.70;9.75;;;14.80;99.90;;;;;;5098425;28;20821;-71
2023/08/06 01:56:00;;;;;;;11.47;9.37;;;14.70;99.90;;;;;;5105861;28;20456;-70
2023/08/06 01:58:25;;;;;;;11.53;9.33;;;14.70;99.90;;;;;;5097166;28;20459;-70
2023/08/06 02:00:51;;;;;;;11.52;9.82;;;14.70;99.90;;;;;;5099234;28;20426;-71
2023/08/06 02:03:16;;;;;;;13.67;10.13;;;14.70;99.90;;;;;;5098551;28;20412;-70
2023/08/06 02:05:42;;;;;;;12.80;10.07;;;14.70;99.90;;;;;;5102829;28;20420;-70
2023/08/06 02:08:08;;;;;;;11.97;9.30;;;14.60;99.90;;;;;;5094059;28;20397;-71
2023/08/06 02:10:34;;;;;;;14.00;9.95;;;14.60;99.90;;;;;;5106248;28;20499;-71
2023/08/06 02:12:59;;;;;;;11.48;9.85;;;14.60;99.90;;;;;;5106046;28;20443;-71
2023/08/06 02:15:25;;;;;;;13.53;10.40;;;14.60;99.90;;;;;;5107243;28;20754;-71
2023/08/06 02:17:51;;;;;;;13.82;10.63;;;14.60;99.90;;;;;;5106001;28;20814;-71
2023/08/06 02:20:16;;;;;;;13.63;10.43;;;14.60;99.90;;;;;;5106922;28;20463;-71
2023/08/06 02:22:42;;;;;;;14.40;10.53;;;14.60;99.90;;;;;;5105918;28;20758;-71
2023/08/06 02:25:08;;;;;;;12.20;9.85;;;14.60;99.90;;;;;;5107651;28;20964;-71
2023/08/06 02:27:33;;;;;;;12.77;10.47;;;14.60;99.90;;;;;;5106893;28;20400;-71
2023/08/06 02:29:59;;;;;;;14.38;10.93;;;14.60;99.90;;;;;;5107151;28;20397;-70
2023/08/06 02:32:25;;;;;;;13.17;9.83;;;14.60;99.90;;;;;;5093530;28;20401;-71
2023/08/06 02:34:50;;;;;;;12.82;10.43;;;14.60;99.90;;;;;;5105671;28;20443;-71
2023/08/06 02:37:16;;;;;;;11.67;10.43;;;14.60;99.90;;;;;;5093123;28;20405;-71
2023/08/06 02:39:41;;;;;;;13.43;10.30;;;14.60;99.90;;;;;;5105863;28;20431;-71
2023/08/06 02:42:08;;;;;;;13.50;10.30;;;14.60;99.90;;;;;;5092856;28;21153;-71
2023/08/06 02:44:34;;;;;;;13.45;10.27;;;14.60;99.90;;;;;;5106918;28;20472;-70
2023/08/06 02:47:00;;;;;;;13.35;10.15;;;14.60;99.90;;;;;;5106243;28;20397;-71
2023/08/06 02:49:25;;;;;;;11.00;9.65;;;14.60;99.90;;;;;;5097611;28;20434;-71
2023/08/06 02:51:52;;;;;;;14.60;9.77;;;14.60;99.90;;;;;;5103372;28;20553;-71
2023/08/06 02:54:18;;;;;;;12.93;9.90;;;14.60;99.90;;;;;;5107802;28;20483;-71
2023/08/06 02:56:45;;;;;;;13.73;10.35;;;14.60;99.90;;;;;;5108683;28;20421;-70
2023/08/06 02:59:11;;;;;;;12.80;9.82;;;14.60;99.90;;;;;;5111800;28;20424;-71
2023/08/06 03:01:37;;;;;;;15.10;9.68;;;14.60;99.90;;;;;;5110294;28;20770;-70
2023/08/06 03:04:03;;;;;;;13.32;10.07;;;14.60;99.90;;;;;;5111761;28;20437;-70
2023/08/06 03:06:28;;;;;;;14.40;10.50;;;14.70;99.90;;;;;;5109849;28;20453;-71
2023/08/06 03:08:54;;;;;;;13.07;9.73;;;14.70;99.90;;;;;;5110577;28;20404;-70
2023/08/06 03:11:20;;;;;;;13.05;9.63;;;14.70;99.90;;;;;;5107825;28;20397;-70
2023/08/06 03:13:47;;;;;;;12.47;9.63;;;14.70;99.90;;;;;;5092035;28;20947;-70
2023/08/06 03:16:13;;;;;;;14.73;9.70;;;14.70;99.90;;;;;;5107217;28;20404;-71
2023/08/06 03:18:38;;;;;;;12.40;9.38;;;14.70;99.90;;;;;;5101759;28;20752;-71
2023/08/06 03:21:04;;;;;;;11.57;8.83;;;14.70;99.90;;;;;;5092903;28;20436;-70
2023/08/06 03:23:29;;;;;;;10.60;9.20;;;14.70;99.90;;;;;;5101810;28;20404;-70
2023/08/06 03:25:55;;;;;;;12.38;9.48;;;14.70;99.90;;;;;;5104493;28;20417;-70
2023/08/06 03:28:22;;;;;;;11.30;9.10;;;14.70;99.90;;;;;;5091455;28;20398;-70
2023/08/06 03:30:48;;;;;;;12.65;9.65;;;14.70;99.90;;;;;;5105873;28;20940;-71
2023/08/06 03:33:14;;;;;;;11.18;9.60;;;14.70;99.90;;;;;;5101752;28;20402;-70
2023/08/06 03:35:39;;;;;;;14.13;9.40;;;14.70;99.90;;;;;;5090857;28;20397;-71
2023/08/06 03:38:05;;;;;;;13.13;9.35;;;14.70;99.90;;;;;;5091276;28;20410;-71
2023/08/06 03:40:31;;;;;;;12.95;9.43;;;14.70;99.90;;;;;;5091473;28;20767;-70
2023/08/06 03:42:56;;;;;;;12.63;9.20;;;14.70;99.90;;;;;;5099202;28;21137;-70
2023/08/06 03:45:22;;;;;;;12.40;8.87;;;14.70;99.90;;;;;;5105788;28;20404;-71
2023/08/06 03:47:47;;;;;;;11.57;8.65;;;14.70;99.90;;;;;;5109629;28;20472;-69
2023/08/06 03:50:13;;;;;;;11.40;8.67;;;14.70;99.90;;;;;;5095070;28;20432;-70
2023/08/06 03:52:39;;;;;;;11.63;9.05;;;14.70;99.90;;;;;;5109361;28;20397;-70
2023/08/06 03:55:04;;;;;;;14.37;8.60;;;14.70;99.90;;;;;;5102930;28;20842;-70
2023/08/06 03:57:30;;;;;;;10.50;9.00;;;14.70;99.90;;;;;;5097705;28;20416;-70
2023/08/06 03:59:56;;;;;;;10.53;8.23;;;14.80;99.90;;;;;;5105469;28;20449;-70
2023/08/06 04:02:22;;;;;;;11.77;8.90;;;14.80;99.90;;;;;;5107952;28;20786;-70
2023/08/06 04:04:48;;;;;;;11.82;8.27;;;14.70;99.90;;;;;;5094273;28;20405;-70
2023/08/06 04:07:14;;;;;;;11.80;9.05;;;14.80;99.90;;;;;;5105873;28;20992;-70
2023/08/06 04:09:58;;;;;;;12.13;8.80;;;14.80;99.90;;;;;;5102533;28;20485;-70
2023/08/06 04:12:24;;;;;;;12.60;8.37;;;14.80;99.90;;;;;;5106728;28;20403;-70
2023/08/06 04:14:51;;;;;;;10.38;8.55;;;14.80;99.90;;;;;;5086283;28;20765;-70
2023/08/06 04:17:20;;;;;;;11.93;8.97;;;14.80;99.90;;;;;;5105762;28;20484;-70
2023/08/06 04:19:47;;;;;;;11.95;8.70;;;14.80;99.90;;;;;;5104855;28;20984;-70
2023/08/06 04:22:13;;;;;;;12.52;9.30;;;14.80;99.90;;;;;;5104521;28;20428;-71
2023/08/06 04:24:39;;;;;;;12.55;9.48;;;14.80;99.90;;;;;;5099197;28;20444;-70
2023/08/06 04:27:04;;;;;;;14.13;9.30;;;14.90;99.90;;;;;;5090463;28;20497;-71
2023/08/06 04:29:30;;;;;;;12.63;9.23;;;14.90;99.90;;;;;;5085652;28;20415;-70
2023/08/06 04:31:56;;;;;;;11.90;8.87;;;14.90;99.90;;;;;;5085045;28;20405;-70
2023/08/06 04:34:21;;;;;;;11.73;8.70;;;14.90;99.90;;;;;;5103398;28;20388;-70
2023/08/06 04:36:47;;;;;;;11.93;8.55;;;15.00;99.90;;;;;;5103792;28;20432;-70
2023/08/06 04:39:13;;;;;;;10.23;8.57;;;15.00;99.90;;;;;;5100899;28;20400;-70
2023/08/06 04:41:39;;;;;;;11.10;8.68;;;15.10;99.90;;;;;;5093469;28;20398;-70
2023/08/06 04:44:04;;;;;;;10.52;8.27;;;15.10;99.90;;;;;;5105871;28;20457;-70
2023/08/06 04:46:30;;;;;;;9.13;7.53;;;15.10;99.90;;;;;;5109436;28;20430;-70
2023/08/06 04:48:56;;;;;;;10.13;7.75;;;15.20;99.90;;;;;;5100925;28;20952;-70
2023/08/06 04:51:21;;;;;;;10.03;7.97;;;15.20;99.90;;;;;;5100454;28;20400;-70
2023/08/06 04:53:47;;;;;;;10.52;7.40;;;15.20;99.90;;;;;;5107516;28;20400;-70
2023/08/06 04:56:12;;;;;;;11.13;8.13;;;15.30;99.90;;;;;;5108747;28;20806;-70
2023/08/06 04:58:38;;;;;;;9.97;7.67;;;15.30;99.90;;;;;;5105001;28;20396;-70
2023/08/06 05:01:04;;;;;;;9.38;7.50;;;15.30;99.90;;;;;;5107148;28;20503;-70
2023/08/06 05:03:29;;;;;;;10.10;7.70;;;15.40;99.90;;;;;;5103247;28;20904;-70
2023/08/06 05:05:55;;;;;;;9.45;7.22;;;15.40;99.90;;;;;;5107431;28;20447;-70
2023/08/06 05:08:20;;;;;;;10.80;7.60;;;15.40;99.90;;;;;;5104744;28;20818;-70
2023/08/06 05:10:46;;;;;;;9.53;7.33;;;15.40;99.90;;;;;;5106494;28;20491;-70
2023/08/06 05:13:12;;;;;;;9.15;7.18;;;15.40;99.90;;;;;;5099932;28;20406;-70
2023/08/06 05:15:42;;;;;;;9.50;7.05;;;15.50;99.90;;;;;;5098609;28;20487;-70
2023/08/06 05:18:08;;;;;;;8.63;6.77;;;15.50;99.90;;;;;;5101862;28;20437;-70
2023/08/06 05:20:37;;;;;;;7.25;6.10;;;15.50;99.90;;;;;;5105940;28;20511;-70
2023/08/06 05:23:02;;;;;;;6.90;5.93;;;15.60;99.90;;;;;;5100357;28;20404;-70
2023/08/06 05:25:28;;;;;;;7.50;6.10;;;15.60;99.90;;;;;;5105176;28;20407;-71
2023/08/06 05:27:53;;;;;;;7.88;6.10;;;15.60;99.90;;;;;;5097300;28;20485;-70
2023/08/06 05:30:19;;;;;;;9.30;6.90;;;15.70;99.90;;;;;;5088794;28;20463;-71
2023/08/06 05:32:44;;;;;;;10.87;7.23;;;15.70;99.90;;;;;;5101791;28;20917;-70
2023/08/06 05:35:10;;;;;;;9.52;7.60;;;15.70;99.90;;;;;;5105155;28;20423;-70
2023/08/06 05:37:36;;;;;;;12.37;8.70;;;15.70;99.90;;;;;;5101231;28;20483;-70
2023/08/06 05:40:02;;;;;;;12.02;8.50;;;15.80;99.90;;;;;;5104862;28;20782;-70
2023/08/06 05:42:28;;;;;;;11.10;9.10;;;15.80;99.90;;;;;;5087228;28;20417;-70
2023/08/06 05:44:54;;;;;;;10.80;8.80;;;15.80;99.90;;;;;;5100991;28;20487;-70
2023/08/06 05:47:19;;;;;;;13.13;9.40;;;15.80;99.90;;;;;;5105612;28;20418;-70
2023/08/06 05:49:45;;;;;;;11.70;9.48;;;15.80;99.90;;;;;;5095483;28;20402;-70
2023/08/06 05:52:11;;;;;;;11.98;9.23;;;15.80;99.90;;;;;;5105317;28;20431;-70
2023/08/06 05:54:37;;;;;;;11.63;9.27;;;15.80;99.90;;;;;;5106856;28;20789;-70
2023/08/06 05:57:03;;;;;;;11.40;9.25;;;15.80;99.90;;;;;;5105549;28;20388;-70
2023/08/06 05:59:28;;;;;;;11.63;9.07;;;15.80;99.90;;;;;;5107101;28;20606;-71
2023/08/06 06:01:57;;;;;;;11.25;9.20;;;15.80;99.90;;;;;;5105564;28;20408;-70
2023/08/06 06:04:22;;;;;;;11.52;9.10;;;15.70;99.90;;;;;;5107057;28;20403;-70
2023/08/06 06:06:48;;;;;;;12.43;9.48;;;15.70;99.90;;;;;;5094577;28;20475;-70
2023/08/06 06:09:14;;;;;;;13.90;9.33;;;15.80;99.90;;;;;;5106980;28;20403;-70
2023/08/06 06:11:39;;;;;;;13.30;9.80;;;15.70;99.90;;;;;;5106430;28;20432;-71
2023/08/06 06:14:05;;;;;;;10.18;9.02;;;15.70;99.90;;;;;;5106987;28;21066;-71
2023/08/06 06:16:30;;;;;;;10.33;9.07;;;15.70;99.90;;;;;;5105094;28;20431;-71
2023/08/06 06:18:57;;;;;;;12.05;9.13;;;15.70;99.90;;;;;;5106251;28;20396;-71
2023/08/06 06:21:24;;;;;;;11.13;9.20;;;15.70;99.90;;;;;;5104837;28;20438;-71
2023/08/06 06:23:51;;;;;;;11.45;9.30;;;15.70;99.90;;;;;;5094174;28;20481;-71
2023/08/06 06:26:18;;;;;;;16.67;9.65;;;15.80;99.90;;;;;;5105047;28;20910;-71
2023/08/06 06:28:43;;;;;;;13.90;9.65;;;15.80;99.90;;;;;;5093909;28;20426;-70
2023/08/06 06:31:09;;;;;;;12.50;9.48;;;15.90;99.90;;;;;;5104382;28;20447;-71
2023/08/06 06:33:35;;;;;;;14.90;9.52;;;16.10;99.90;;;;;;5105910;28;20903;-71
2023/08/06 06:36:03;;;;;;;10.30;9.20;;;16.20;99.90;;;;;;5098283;28;20890;-71
2023/08/06 06:38:29;;;;;;;12.07;8.57;;;16.30;99.90;;;;;;5100694;28;20412;-71
2023/08/06 06:40:55;;;;;;;10.13;8.30;;;16.40;99.90;;;;;;5098489;28;20435;-71
2023/08/06 06:43:21;;;;;;;12.17;8.80;;;16.50;99.90;;;;;;5100029;28;20403;-71
2023/08/06 06:45:46;;;;;;;11.27;8.85;;;16.60;99.90;;;;;;5106228;28;20774;-71
2023/08/06 06:48:12;;;;;;;13.38;9.32;;;16.60;99.90;;;;;;5082994;28;21579;-71
2023/08/06 06:50:39;;;;;;;12.97;9.00;;;16.60;99.90;;;;;;5078732;28;20886;-70
2023/08/06 06:53:05;;;;;;;10.60;9.00;;;16.60;99.90;;;;;;5073687;28;20411;-70
2023/08/06 06:55:31;;;;;;;10.80;8.70;;;16.60;99.90;;;;;;5080540;28;20400;-71
2023/08/06 06:57:56;;;;;;;10.77;8.27;;;16.60;99.90;;;;;;5075775;28;21146;-72
2023/08/06 07:00:22;;;;;;;10.87;8.90;;;16.60;99.90;;;;;;5084775;28;20436;-70
2023/08/06 07:02:47;;;;;;;10.32;8.48;;;16.70;99.90;;;;;;5083184;28;20410;-70
2023/08/06 07:05:13;;;;;;;10.00;8.13;;;16.70;99.90;;;;;;5089036;28;20781;-72
2023/08/06 07:07:39;;;;;;;9.52;8.35;;;16.80;99.90;;;;;;5079054;28;20406;-71
2023/08/06 07:10:05;;;;;;;10.93;8.23;;;16.90;99.90;;;;;;5079868;28;20758;-71
2023/08/06 07:12:31;;;;;;;10.38;7.95;;;17.00;99.90;;;;;;5067619;28;20980;-72
2023/08/06 07:14:56;;;;;;;10.27;7.73;;;17.10;99.90;;;;;;5080061;28;20472;-72
2023/08/06 07:17:22;;;;;;;10.30;8.00;;;17.10;99.90;;;;;;5078059;28;20403;-71
2023/08/06 07:19:48;;;;;;;8.25;7.10;;;17.10;99.90;;;;;;5081251;28;20428;-71
2023/08/06 07:22:13;;;;;;;10.83;7.23;;;17.20;99.90;;;;;;5086519;28;20403;-72
2023/08/06 07:24:39;;;;;;;9.60;7.25;;;17.30;99.90;;;;;;5083156;28;20419;-72
2023/08/06 07:27:05;;;;;;;9.63;7.33;;;17.30;99.90;;;;;;5078444;28;20453;-71
2023/08/06 07:29:30;;;;;;;8.68;7.13;;;17.50;99.90;;;;;;5082542;28;20479;-71
2023/08/06 07:31:56;;;;;;;9.03;6.87;;;17.60;99.90;;;;;;5077588;28;20479;-72
2023/08/06 07:34:22;;;;;;;8.35;6.90;;;17.70;99.90;;;;;;5085136;28;20402;-72
2023/08/06 07:36:47;;;;;;;8.33;6.60;;;17.80;99.90;;;;;;5087229;28;20410;-72
2023/08/06 07:39:13;;;;;;;8.13;6.50;;;18.00;99.90;;;;;;5089735;28;21385;-72
2023/08/06 07:41:39;;;;;;;9.00;6.28;;;18.00;99.90;;;;;;5076252;28;20494;-72
2023/08/06 07:44:04;;;;;;;7.80;6.03;;;18.10;99.90;;;;;;5080027;28;20959;-71
2023/08/06 07:46:30;;;;;;;7.80;5.80;;;18.20;99.90;;;;;;5081939;28;20819;-71
2023/08/06 07:48:55;;;;;;;9.43;6.57;;;18.20;99.90;;;;;;5091511;28;20766;-72
2023/08/06 07:51:21;;;;;;;7.65;5.75;;;18.40;99.90;;;;;;5073298;28;20418;-72
2023/08/06 07:53:47;;;;;;;6.07;5.20;;;18.40;99.90;;;;;;5085431;28;20402;-72
2023/08/06 07:56:13;;;;;;;6.88;5.60;;;18.40;99.90;;;;;;5087204;28;20389;-71
2023/08/06 07:58:38;;;;;;;5.60;4.80;;;18.50;99.90;;;;;;5083200;28;20453;-72
2023/08/06 08:01:05;;;;;;;6.85;5.35;;;18.50;99.90;;;;;;5075067;28;20432;-72
2023/08/06 08:03:31;;;;;;;6.95;5.30;;;18.50;99.90;;;;;;5083913;28;20495;-72
2023/08/06 08:05:59;;;;;;;6.97;5.23;;;18.60;99.90;;;;;;5085681;28;20882;-72
2023/08/06 08:08:25;;;;;;;7.68;5.15;;;18.70;99.90;;;;;;5091156;28;20487;-72
2023/08/06 08:10:51;;;;;;;5.40;4.22;;;18.70;99.90;;;;;;5079877;28;20842;-71
2023/08/06 08:13:16;;;;;;;5.30;4.00;;;18.80;99.90;;;;;;5079953;28;20400;-71
2023/08/06 08:15:42;;;;;;;5.30;4.32;;;18.90;99.90;;;;;;5087271;28;20400;-71
2023/08/06 08:18:08;;;;;;;6.07;4.50;;;19.00;99.90;;;;;;5099953;28;20473;-71
2023/08/06 08:20:35;;;;;;;4.80;3.70;;;19.10;99.90;;;;;;5102818;28;20481;-71
2023/08/06 08:23:01;;;;;;;4.00;3.25;;;19.10;99.90;;;;;;5100089;28;20408;-71
2023/08/06 08:25:27;;;;;;;4.68;3.42;;;19.30;99.90;;;;;;5101980;28;20416;-69
2023/08/06 08:27:54;;;;;;;4.38;2.30;;;19.40;99.90;;;;;;5098645;28;20497;-71
2023/08/06 08:30:19;;;;;;;3.03;2.30;;;19.50;99.90;;;;;;5086930;28;20460;-71
2023/08/06 08:32:45;;;;;;;4.53;3.05;;;19.50;99.90;;;;;;5085154;28;20930;-70
2023/08/06 08:35:12;;;;;;;3.57;2.80;;;19.60;99.90;;;;;;5099022;28;20393;-70
2023/08/06 08:37:38;;;;;;;4.07;1.85;;;19.70;99.90;;;;;;5096205;28;20765;-71
2023/08/06 08:40:06;;;;;;;4.83;2.73;;;19.80;99.90;;;;;;5098794;28;21040;-70
2023/08/06 08:42:32;;;;;;;4.13;2.40;;;20.00;99.90;;;;;;5095507;28;20497;-71
2023/08/06 08:44:57;;;;;;;4.33;2.27;;;20.00;99.90;;;;;;5092687;28;20466;-71
2023/08/06 08:47:24;;;;;;;3.80;1.90;;;20.10;99.90;;;;;;5102945;28;20412;-70
2023/08/06 08:49:54;;;;;;;3.07;1.97;;;20.20;99.90;;;;;;5094946;28;20778;-71
2023/08/06 08:52:21;;;;;;;3.13;1.80;;;20.30;99.90;;;;;;5097586;28;20512;-71
2023/08/06 08:54:51;;;;;;;3.47;1.73;;;20.30;99.90;;;;;;5090762;28;20425;-71
2023/08/06 08:57:17;;;;;;;2.92;1.67;;;20.40;99.90;;;;;;5100245;28;20444;-70
2023/08/06 08:59:43;;;;;;;3.95;1.83;;;20.50;99.90;;;;;;5091237;28;20503;-72
2023/08/06 09:02:12;;;;;;;2.35;1.20;;;20.60;99.90;;;;;;5091294;28;20455;-72
2023/08/06 09:04:40;;;;;;;2.88;1.48;;;20.60;99.90;;;;;;5098700;28;20864;-72
2023/08/06 09:07:07;;;;;;;2.83;1.40;;;20.70;99.90;;;;;;5104685;28;20416;-72
2023/08/06 09:09:36;;;;;;;2.70;1.40;;;20.80;99.90;;;;;;5103240;28;20412;-72
2023/08/06 09:12:10;;;;;;;2.53;1.50;;;20.90;99.90;;;;;;5104081;28;20913;-72
2023/08/06 09:14:36;;;;;;;2.15;1.25;;;21.00;99.90;;;;;;5101162;28;20497;-72
2023/08/06 09:17:02;;;;;;;3.22;1.48;;;21.20;99.90;;;;;;5091243;28;20406;-72
2023/08/06 09:19:28;;;;;;;2.73;1.10;;;21.40;99.90;;;;;;5089460;28;20446;-72
2023/08/06 09:21:56;;;;;;;2.70;1.70;;;21.50;99.90;;;;;;5093829;28;20868;-72
2023/08/06 09:24:22;;;;;;;2.47;1.02;;;21.70;99.90;;;;;;5100717;28;20398;-72
2023/08/06 09:26:47;;;;;;;2.43;1.00;;;21.90;99.90;;;;;;5097510;28;20914;-72
2023/08/06 09:29:14;;;;;;;2.30;1.08;;;22.00;99.90;;;;;;5091116;28;20401;-72
2023/08/06 09:31:53;;;;;;;3.27;1.57;;;22.00;99.90;;;;;;5094434;28;20901;-72
2023/08/06 09:34:23;;;;;;;2.72;1.40;;;22.10;99.90;;;;;;5097714;28;20442;-72
2023/08/06 09:36:50;;;;;;;3.47;1.30;;;22.10;99.90;;;;;;5097902;28;21341;-72
2023/08/06 09:39:21;;;;;;;2.53;1.42;;;22.10;99.90;;;;;;5092253;28;20417;-72
2023/08/06 09:41:50;;;;;;;3.00;1.58;;;22.20;99.90;;;;;;5093687;28;20410;-72
2023/08/06 09:44:22;;;;;;;3.40;1.40;;;22.10;99.90;;;;;;5091471;28;20924;-72
2023/08/06 09:46:49;;;;;;;2.03;1.13;;;22.10;99.90;;;;;;5090015;28;20541;-72
2023/08/06 09:49:16;;;;;;;1.67;1.10;;;22.00;99.90;;;;;;5097725;28;20770;-72
2023/08/06 09:51:42;;;;;;;2.22;1.10;;;22.00;99.90;;;;;;5102669;28;20402;-72
2023/08/06 09:54:12;;;;;;;2.20;0.93;;;22.10;99.90;;;;;;5105447;28;20939;-72
2023/08/06 09:56:38;;;;;;;2.10;0.80;;;22.20;99.90;;;;;;5095071;28;20485;-72
2023/08/06 09:59:06;;;;;;;1.23;0.70;;;22.20;99.90;;;;;;5100333;28;20487;-72
2023/08/06 10:01:36;;;;;;;1.80;0.80;;;22.30;99.90;;;;;;5090820;28;20418;-72
2023/08/06 10:04:04;;;;;;;1.83;0.77;;;22.40;99.90;;;;;;5092873;28;20473;-70
2023/08/06 10:06:33;;;;;;;2.87;0.90;;;22.60;99.90;;;;;;5099810;28;20517;-71
2023/08/06 10:08:59;;;;;;;1.83;0.93;;;23.00;99.90;;;;;;5089458;28;20503;-70
2023/08/06 10:11:28;;;;;;;1.60;0.80;;;23.50;99.90;;;;;;5097281;28;20489;-70
2023/08/06 10:14:04;;;;;;;2.50;0.80;;;23.90;99.90;;;;;;5095311;28;20758;-70
2023/08/06 10:16:30;;;;;;;2.88;0.90;;;24.30;99.90;;;;;;5096539;28;20489;-71
2023/08/06 10:18:57;;;;;;;2.58;0.80;;;24.40;99.90;;;;;;5104226;28;20431;-71
2023/08/06 10:21:27;;;;;;;1.77;0.75;;;24.40;99.90;;;;;;5098301;28;20452;-71
2023/08/06 10:23:54;;;;;;;2.13;0.85;;;24.60;99.90;;;;;;5102174;28;20400;-71
2023/08/06 10:26:20;;;;;;;2.45;0.90;;;24.80;99.90;;;;;;5082207;28;20405;-71
2023/08/06 10:28:46;;;;;;;2.27;0.80;;;25.00;99.90;;;;;;5101746;28;20814;-71
2023/08/06 10:31:11;;;;;;;1.30;0.60;;;24.80;99.90;;;;;;5095061;28;20760;-71
2023/08/06 10:33:43;;;;;;;1.60;0.70;;;24.60;99.90;;;;;;5095862;28;20397;-71
2023/08/06 10:36:09;;;;;;;2.25;0.80;;;24.70;99.90;;;;;;5099094;28;20465;-71
2023/08/06 10:38:43;;;;;;;1.63;0.70;;;24.90;99.90;;;;;;5092485;28;20749;-71
2023/08/06 10:41:16;;;;;;;2.30;0.67;;;25.20;99.90;;;;;;5094565;28;20954;-71
2023/08/06 10:43:43;;;;;;;1.77;0.80;;;25.40;99.90;;;;;;5101048;28;20406;-71
2023/08/06 10:46:11;;;;;;;2.60;0.70;;;25.60;99.90;;;;;;5106329;28;20947;-71
2023/08/06 10:48:41;;;;;;;1.90;0.90;;;25.90;99.90;;;;;;5103690;28;20402;-71
2023/08/06 10:51:14;;;;;;;2.22;0.85;;;26.10;99.90;;;;;;5105693;28;20396;-71
2023/08/06 10:53:50;;;;;;;1.30;0.73;;;26.20;99.90;;;;;;5087989;28;20402;-71
2023/08/06 10:56:17;;;;;;;1.65;0.95;;;26.30;99.90;;;;;;5097093;28;21269;-72
2023/08/06 10:58:44;;;;;;;2.25;0.73;;;26.40;99.00;;;;;;5101532;28;20401;-72
2023/08/06 11:01:10;;;;;;;1.83;0.60;;;26.50;98.20;;;;;;5103352;28;20474;-71
2023/08/06 11:03:37;;;;;;;2.13;0.60;;;26.60;98.30;;;;;;5101735;28;20802;-71
2023/08/06 11:06:02;;;;;;;2.13;0.77;;;26.60;97.40;;;;;;5092890;28;20409;-71
2023/08/06 11:08:33;;;;;;;1.30;0.63;;;26.70;97.70;;;;;;5096352;28;20492;-73
2023/08/06 11:11:10;;;;;;;1.30;0.60;;;26.80;95.90;;;;;;5087001;28;20405;-72
2023/08/06 11:13:38;;;;;;;1.23;0.60;;;26.80;95.40;;;;;;5082525;28;20412;-72
2023/08/06 11:16:04;;;;;;;1.45;0.60;;;26.70;96.10;;;;;;5102384;28;20402;-72
2023/08/06 11:18:30;;;;;;;1.13;0.60;;;26.50;95.20;;;;;;5087286;28;20400;-72
2023/08/06 11:20:58;;;;;;;2.00;0.77;;;26.60;95.90;;;;;;5104980;28;20422;-72
2023/08/06 11:23:29;;;;;;;0.80;0.50;;;26.70;96.60;;;;;;5097737;28;20399;-72
2023/08/06 11:25:58;;;;;;;2.38;0.90;;;26.70;96.50;;;;;;5090745;28;20463;-72
2023/08/06 11:28:24;;;;;;;1.40;0.73;;;26.70;96.80;;;;;;5108075;28;20746;-72
2023/08/06 11:30:50;;;;;;;1.10;0.60;;;26.70;97.20;;;;;;5105438;28;20459;-72
2023/08/06 11:33:25;;;;;;;1.02;0.60;;;26.90;97.00;;;;;;5107712;28;20392;-72
2023/08/06 11:35:51;;;;;;;1.23;0.50;;;27.00;96.50;;;;;;5103293;28;20438;-72
2023/08/06 11:38:18;;;;;;;1.73;0.60;;;27.10;96.90;;;;;;5105795;28;20408;-72
2023/08/06 11:40:47;;;;;;;0.93;0.53;;;27.30;96.10;;;;;;5101150;28;20512;-72
2023/08/06 11:43:14;;;;;;;1.43;0.53;;;27.50;96.80;;;;;;5089963;28;20437;-72
2023/08/06 11:45:40;;;;;;;1.37;0.50;;;27.60;97.00;;;;;;5107208;28;20404;-72
2023/08/06 11:48:08;;;;;;;1.83;0.60;;;27.70;96.00;;;;;;5109022;28;20508;-72
2023/08/06 11:50:38;;;;;;;2.55;0.77;;;27.70;95.40;;;;;;5107057;28;20405;-72
2023/08/06 11:53:04;;;;;;;1.42;0.50;;;27.50;95.10;;;;;;5096833;27;20475;-72
2023/08/06 11:55:31;;;;;;;1.63;0.60;;;27.50;94.60;;;;;;5106637;28;20807;-72
2023/08/06 11:57:57;;;;;;;1.65;0.50;;;27.50;95.80;;;;;;5096137;28;20397;-72
2023/08/06 12:00:25;;;;;;;1.85;0.52;;;27.50;95.30;;;;;;5105569;28;20408;-72
2023/08/06 12:02:52;;;;;;;1.20;0.60;;;27.50;95.40;;;;;;5095402;28;20416;-72
2023/08/06 12:05:24;;;;;;;1.45;0.50;;;27.50;95.40;;;;;;5089546;28;20539;-73
2023/08/06 12:07:52;;;;;;;1.27;0.30;;;27.50;95.10;;;;;;5088822;28;20489;-72
2023/08/06 12:10:21;;;;;;;2.73;0.87;;;27.50;94.60;;;;;;5104688;28;20399;-72
2023/08/06 12:12:47;;;;;;;1.40;0.53;;;27.60;95.10;;;;;;5103836;28;20406;-72
2023/08/06 12:15:14;;;;;;;1.70;0.60;;;27.70;94.70;;;;;;5106013;28;20400;-72
2023/08/06 12:17:40;;;;;;;2.30;0.60;;;27.70;94.30;;;;;;5103326;28;20425;-73
2023/08/06 12:20:06;;;;;;;1.63;0.50;;;27.60;94.10;;;;;;5105503;28;20424;-72
2023/08/06 12:22:37;;;;;;;1.30;0.60;;;27.50;93.80;;;;;;5103781;28;20398;-72
2023/08/06 12:25:03;;;;;;;1.70;0.60;;;27.50;93.80;;;;;;5105254;28;20434;-72
2023/08/06 12:27:29;;;;;;;1.75;0.60;;;27.40;93.40;;;;;;5102752;28;20820;-72
2023/08/06 12:29:55;;;;;;;1.80;0.60;;;27.40;93.70;;;;;;5104702;28;20581;-72
2023/08/06 12:32:21;;;;;;;1.55;0.55;;;27.50;93.50;;;;;;5097160;28;20410;-72
2023/08/06 12:34:47;;;;;;;1.02;0.50;;;27.80;93.60;;;;;;5104249;28;20405;-72
2023/08/06 12:37:13;;;;;;;2.10;0.70;;;27.80;92.60;;;;;;5101161;28;20409;-71